Mackinaw City, MI (49701)

8:22 PM EST on January 31, 2015 (GMT -0500)
NOS_NWLON Mackinaw City, MI NWLON | Change Station
CLOSE
Current Station
Personal Weather Station
Location: Mackinaw City, MI
Elevation: 580 ft
Nearby Weather Stations

Elev 580 ft 45.78 °N, 84.73 °W | Updated 3 hours ago

Overcast
Overcast
24 °F
Feels Like 12 °F
N
13
Wind Variable Wind from West
Gusts 20.0 mph

Today
High -- | Low -- °F
--% Chance of Precip.
Yesterday
High -- | Low -- °F
Precip. -- in
8:02 AM 5:43 PM
Waxing Gibbous, 92% visible
Pressure 30.24 in
Visibility 10.0 miles
Clouds Scattered Clouds 3100 ft
Windchill 12 °F
Dew Point Not available.
Humidity Not available.
Rainfall -999.00 in
Snow Depth Not available.
UV 0 out of 12
Pollen .10 out of 12
Air Quality Not available.
Flu Activity Not available.
METAR KMCD 010116Z AUTO 31009G18KT 10SM SCT031 M09/M13 A3024 RMK AO2 T10861132

More Conditions Fewer Conditions

Pressure 30.24 in
Visibility 10.0 miles
Clouds Scattered Clouds 3100 ft
Windchill 12 °F
Dew Point Not available.
Humidity Not available.
Rainfall -999.00 in
Snow Depth Not available.
UV 0 out of 12
Pollen .10 out of 12
Air Quality Not available.
Flu Activity Not available.
METAR KMCD 010116Z AUTO 31009G18KT 10SM SCT031 M09/M13 A3024 RMK AO2 T10861132

More Conditions Fewer Conditions

Nowcast | as of 8:00 PM EST on January 31, 2015

At 9 PM...mostly cloudy. Chance of snow showers. Temperature 17. North winds 6 mph. At 11 PM...partly cloudy. Temperature 13. North winds 7 mph. At 1 am...partly cloudy. Temperature 9 above. North winds 7 mph. At 3 am...partly cloudy. Temperature 5 above. Northeast winds 7 mph.

×

10-Day Weather Forecast

Almanac

Astronomy

Jan. 31, 2015 Rise Set
Actual Time
Civil Twilight
Nautical Twilight
Astronomical Twilight
Moon
Length of Visible Light
Length of Day
Tomorrow will be .
, % of the Moon is Illuminated

Today's Extremes

State Highs State Lows

Community

WunderPhotos

Upload Photos

1,792,273 photos uploaded!

WunderBlogs® & News

Nearby

Air Quality

  Air Quality AQ Index Pollutant
Not available.

Snow Depth

Station Depth Elevation

Earthquake Activity

City Distance Mag. Time & Date
Minimum magnitude displayed is 2.5.

Coastal Water Temperatures

Place Temperature

Nearby Weather Stations